sensor_id;sensor_type;location;lat;lon;timestamp;noise_LAeq;noise_LA_min;noise_LA_max;noise_LA01;noise_LA95
70454;Laerm;57915;47.174;14.680;2023-09-19T00:00:56;41.45;34.65;57.04;;
70454;Laerm;57915;47.174;14.680;2023-09-19T00:01:56;56.82;35.53;69.63;;
70454;Laerm;57915;47.174;14.680;2023-09-19T00:02:58;39.72;36.56;55.96;;
70454;Laerm;57915;47.174;14.680;2023-09-19T00:03:59;39.42;36.29;55.44;;
70454;Laerm;57915;47.174;14.680;2023-09-19T00:05:01;38.96;35.59;54.50;;
70454;Laerm;57915;47.174;14.680;2023-09-19T00:06:03;38.23;35.50;51.62;;
70454;Laerm;57915;47.174;14.680;2023-09-19T00:07:07;40.41;36.00;50.33;;
70454;Laerm;57915;47.174;14.680;2023-09-19T00:08:09;43.21;41.11;59.05;;
70454;Laerm;57915;47.174;14.680;2023-09-19T00:09:10;44.18;41.69;58.10;;
70454;Laerm;57915;47.174;14.680;2023-09-19T00:10:11;42.95;40.80;52.67;;
70454;Laerm;57915;47.174;14.680;2023-09-19T00:11:12;44.18;40.01;52.13;;
70454;Laerm;57915;47.174;14.680;2023-09-19T00:12:15;45.64;39.49;52.61;;
70454;Laerm;57915;47.174;14.680;2023-09-19T00:13:18;40.08;36.67;53.58;;
70454;Laerm;57915;47.174;14.680;2023-09-19T00:14:19;40.34;36.19;53.22;;
70454;Laerm;57915;47.174;14.680;2023-09-19T00:15:20;40.87;37.64;58.13;;
70454;Laerm;57915;47.174;14.680;2023-09-19T00:16:21;40.74;37.37;51.55;;
70454;Laerm;57915;47.174;14.680;2023-09-19T00:17:23;39.83;36.60;54.74;;
70454;Laerm;57915;47.174;14.680;2023-09-19T00:18:24;40.08;37.44;53.46;;
70454;Laerm;57915;47.174;14.680;2023-09-19T00:19:29;39.69;36.10;55.13;;
70454;Laerm;57915;47.174;14.680;2023-09-19T00:20:29;39.20;36.49;56.58;;
70454;Laerm;57915;47.174;14.680;2023-09-19T00:21:31;38.99;36.12;50.99;;
70454;Laerm;57915;47.174;14.680;2023-09-19T00:22:31;39.13;36.10;53.42;;
70454;Laerm;57915;47.174;14.680;2023-09-19T00:23:33;40.29;37.23;53.58;;
70454;Laerm;57915;47.174;14.680;2023-09-19T00:24:33;40.33;36.85;48.16;;
70454;Laerm;57915;47.174;14.680;2023-09-19T00:25:35;40.57;37.28;52.23;;
70454;Laerm;57915;47.174;14.680;2023-09-19T00:26:37;39.54;36.14;54.91;;
70454;Laerm;57915;47.174;14.680;2023-09-19T00:27:39;40.00;36.93;57.34;;
70454;Laerm;57915;47.174;14.680;2023-09-19T00:28:40;39.63;36.66;50.32;;
70454;Laerm;57915;47.174;14.680;2023-09-19T00:29:41;39.59;36.34;52.28;;
70454;Laerm;57915;47.174;14.680;2023-09-19T00:30:42;40.97;36.70;53.68;;
70454;Laerm;57915;47.174;14.680;2023-09-19T00:31:43;39.91;36.73;51.17;;
70454;Laerm;57915;47.174;14.680;2023-09-19T00:32:44;40.72;36.90;51.57;;
70454;Laerm;57915;47.174;14.680;2023-09-19T00:33:47;39.80;36.35;50.89;;
70454;Laerm;57915;47.174;14.680;2023-09-19T00:34:48;39.90;36.11;55.73;;
70454;Laerm;57915;47.174;14.680;2023-09-19T00:35:50;40.99;36.62;59.68;;
70454;Laerm;57915;47.174;14.680;2023-09-19T00:36:51;39.26;36.36;51.84;;
70454;Laerm;57915;47.174;14.680;2023-09-19T00:37:54;52.88;36.72;69.70;;
70454;Laerm;57915;47.174;14.680;2023-09-19T00:38:55;60.21;38.31;74.40;;
70454;Laerm;57915;47.174;14.680;2023-09-19T00:39:57;40.31;36.83;57.39;;
70454;Laerm;57915;47.174;14.680;2023-09-19T00:40:57;40.49;36.23;48.17;;
70454;Laerm;57915;47.174;14.680;2023-09-19T00:41:59;53.72;37.61;65.38;;
70454;Laerm;57915;47.174;14.680;2023-09-19T00:43:06;41.07;37.89;52.08;;
70454;Laerm;57915;47.174;14.680;2023-09-19T00:44:08;40.40;37.30;50.81;;
70454;Laerm;57915;47.174;14.680;2023-09-19T00:45:10;42.90;37.86;66.52;;
70454;Laerm;57915;47.174;14.680;2023-09-19T00:46:12;42.64;38.10;63.81;;
70454;Laerm;57915;47.174;14.680;2023-09-19T00:47:16;41.11;37.38;50.29;;
70454;Laerm;57915;47.174;14.680;2023-09-19T00:48:18;43.20;36.81;60.56;;
70454;Laerm;57915;47.174;14.680;2023-09-19T00:49:19;50.65;39.58;68.18;;
70454;Laerm;57915;47.174;14.680;2023-09-19T00:50:23;50.87;37.43;63.83;;
70454;Laerm;57915;47.174;14.680;2023-09-19T00:51:25;60.23;38.58;73.69;;
70454;Laerm;57915;47.174;14.680;2023-09-19T00:52:27;42.74;38.66;63.67;;
70454;Laerm;57915;47.174;14.680;2023-09-19T00:53:28;39.93;37.06;56.76;;
70454;Laerm;57915;47.174;14.680;2023-09-19T00:54:31;40.68;37.42;51.35;;
70454;Laerm;57915;47.174;14.680;2023-09-19T00:55:33;40.76;37.46;46.64;;
70454;Laerm;57915;47.174;14.680;2023-09-19T00:56:37;41.14;37.76;59.61;;
70454;Laerm;57915;47.174;14.680;2023-09-19T00:57:40;40.68;37.81;52.97;;
70454;Laerm;57915;47.174;14.680;2023-09-19T00:58:43;41.11;37.41;56.95;;
70454;Laerm;57915;47.174;14.680;2023-09-19T00:59:43;40.92;37.64;49.15;;
70454;Laerm;57915;47.174;14.680;2023-09-19T01:00:44;41.43;37.98;53.59;;
70454;Laerm;57915;47.174;14.680;2023-09-19T01:01:45;49.34;41.05;55.88;;
70454;Laerm;57915;47.174;14.680;2023-09-19T01:02:46;41.88;37.90;52.39;;
70454;Laerm;57915;47.174;14.680;2023-09-19T01:03:48;41.66;37.94;53.82;;
70454;Laerm;57915;47.174;14.680;2023-09-19T01:04:49;42.55;38.46;50.71;;
70454;Laerm;57915;47.174;14.680;2023-09-19T01:05:51;40.90;37.73;57.00;;
70454;Laerm;57915;47.174;14.680;2023-09-19T01:06:52;43.11;37.46;64.70;;
70454;Laerm;57915;47.174;14.680;2023-09-19T01:07:53;48.35;36.87;74.64;;
70454;Laerm;57915;47.174;14.680;2023-09-19T01:08:55;47.11;37.99;54.97;;
70454;Laerm;57915;47.174;14.680;2023-09-19T01:09:55;44.91;38.19;52.69;;
70454;Laerm;57915;47.174;14.680;2023-09-19T01:10:59;52.82;37.03;65.15;;
70454;Laerm;57915;47.174;14.680;2023-09-19T01:12:02;40.58;36.90;50.82;;
70454;Laerm;57915;47.174;14.680;2023-09-19T01:13:08;40.97;37.77;44.92;;
70454;Laerm;57915;47.174;14.680;2023-09-19T01:14:15;41.45;36.87;48.27;;
70454;Laerm;57915;47.174;14.680;2023-09-19T01:15:23;40.64;37.55;49.13;;
70454;Laerm;57915;47.174;14.680;2023-09-19T01:16:31;40.64;38.12;49.47;;
70454;Laerm;57915;47.174;14.680;2023-09-19T01:17:38;39.74;37.28;50.40;;
70454;Laerm;57915;47.174;14.680;2023-09-19T01:18:43;40.03;36.64;49.71;;
70454;Laerm;57915;47.174;14.680;2023-09-19T01:20:01;39.91;36.24;54.90;;
70454;Laerm;57915;47.174;14.680;2023-09-19T01:21:05;40.48;36.94;47.05;;
70454;Laerm;57915;47.174;14.680;2023-09-19T01:22:11;40.22;36.75;51.94;;
70454;Laerm;57915;47.174;14.680;2023-09-19T01:23:20;39.39;36.71;42.49;;
70454;Laerm;57915;47.174;14.680;2023-09-19T01:24:41;39.98;35.97;49.58;;
70454;Laerm;57915;47.174;14.680;2023-09-19T01:27:17;45.18;37.06;55.12;;
70454;Laerm;57915;47.174;14.680;2023-09-19T01:28:32;40.36;37.02;48.24;;
70454;Laerm;57915;47.174;14.680;2023-09-19T01:29:41;41.24;37.45;49.68;;
70454;Laerm;57915;47.174;14.680;2023-09-19T01:30:45;40.47;37.37;45.31;;
70454;Laerm;57915;47.174;14.680;2023-09-19T01:31:47;43.55;37.07;50.50;;
70454;Laerm;57915;47.174;14.680;2023-09-19T01:32:50;45.36;38.49;52.51;;
70454;Laerm;57915;47.174;14.680;2023-09-19T01:33:56;39.80;36.05;45.39;;
70454;Laerm;57915;47.174;14.680;2023-09-19T01:34:59;39.83;37.02;51.30;;
70454;Laerm;57915;47.174;14.680;2023-09-19T01:36:04;39.45;36.15;54.58;;
70454;Laerm;57915;47.174;14.680;2023-09-19T01:37:05;40.11;36.90;51.34;;
70454;Laerm;57915;47.174;14.680;2023-09-19T01:38:06;59.90;36.37;73.72;;
70454;Laerm;57915;47.174;14.680;2023-09-19T01:39:10;41.44;37.38;48.46;;
70454;Laerm;57915;47.174;14.680;2023-09-19T01:40:11;40.94;36.53;49.13;;
70454;Laerm;57915;47.174;14.680;2023-09-19T01:41:17;55.48;37.21;68.60;;
70454;Laerm;57915;47.174;14.680;2023-09-19T01:42:24;54.63;36.35;67.62;;
70454;Laerm;57915;47.174;14.680;2023-09-19T01:43:31;42.77;38.28;50.54;;
70454;Laerm;57915;47.174;14.680;2023-09-19T01:44:36;45.62;37.94;52.84;;
70454;Laerm;57915;47.174;14.680;2023-09-19T01:45:43;48.95;39.34;57.58;;
70454;Laerm;57915;47.174;14.680;2023-09-19T01:46:48;42.29;38.90;48.76;;
70454;Laerm;57915;47.174;14.680;2023-09-19T01:47:49;44.98;39.29;54.82;;
70454;Laerm;57915;47.174;14.680;2023-09-19T01:48:54;41.83;36.94;50.10;;
70454;Laerm;57915;47.174;14.680;2023-09-19T01:49:58;57.35;35.19;70.28;;
70454;Laerm;57915;47.174;14.680;2023-09-19T01:51:05;45.00;35.99;58.46;;
70454;Laerm;57915;47.174;14.680;2023-09-19T01:52:09;38.10;35.57;41.63;;
70454;Laerm;57915;47.174;14.680;2023-09-19T01:53:14;40.80;35.79;48.83;;
70454;Laerm;57915;47.174;14.680;2023-09-19T01:54:16;39.64;35.92;44.16;;
70454;Laerm;57915;47.174;14.680;2023-09-19T01:58:37;41.29;36.46;51.29;;
70454;Laerm;57915;47.174;14.680;2023-09-19T01:59:41;39.92;36.55;44.73;;
70454;Laerm;57915;47.174;14.680;2023-09-19T02:00:44;60.30;36.23;73.68;;
70454;Laerm;57915;47.174;14.680;2023-09-19T02:01:48;40.29;36.94;45.26;;
70454;Laerm;57915;47.174;14.680;2023-09-19T02:02:51;40.31;36.62;47.61;;
70454;Laerm;57915;47.174;14.680;2023-09-19T02:03:52;40.38;37.20;46.24;;
70454;Laerm;57915;47.174;14.680;2023-09-19T02:04:53;38.45;35.70;41.85;;
70454;Laerm;57915;47.174;14.680;2023-09-19T02:05:55;52.85;35.96;66.47;;
70454;Laerm;57915;47.174;14.680;2023-09-19T02:06:56;48.83;37.29;62.67;;
70454;Laerm;57915;47.174;14.680;2023-09-19T02:07:58;60.38;38.90;73.61;;
70454;Laerm;57915;47.174;14.680;2023-09-19T02:08:58;42.28;39.76;53.70;;
70454;Laerm;57915;47.174;14.680;2023-09-19T02:10:00;45.71;40.70;53.07;;
70454;Laerm;57915;47.174;14.680;2023-09-19T02:11:00;56.32;38.03;68.26;;
70454;Laerm;57915;47.174;14.680;2023-09-19T02:12:02;40.35;37.00;43.71;;
70454;Laerm;57915;47.174;14.680;2023-09-19T02:13:03;55.21;37.35;67.60;;
70454;Laerm;57915;47.174;14.680;2023-09-19T02:14:05;42.12;38.47;49.71;;
70454;Laerm;57915;47.174;14.680;2023-09-19T02:15:08;40.57;37.74;44.07;;
70454;Laerm;57915;47.174;14.680;2023-09-19T02:16:10;57.18;38.79;68.54;;
70454;Laerm;57915;47.174;14.680;2023-09-19T02:17:12;41.04;36.47;48.87;;
70454;Laerm;57915;47.174;14.680;2023-09-19T02:18:13;50.75;36.90;64.18;;
70454;Laerm;57915;47.174;14.680;2023-09-19T02:19:14;41.83;37.17;52.61;;
70454;Laerm;57915;47.174;14.680;2023-09-19T02:20:16;41.42;37.68;55.76;;
70454;Laerm;57915;47.174;14.680;2023-09-19T02:21:17;41.80;38.39;47.75;;
70454;Laerm;57915;47.174;14.680;2023-09-19T02:22:18;53.81;38.25;64.27;;
70454;Laerm;57915;47.174;14.680;2023-09-19T02:23:19;54.89;41.42;67.04;;
70454;Laerm;57915;47.174;14.680;2023-09-19T02:24:20;49.71;42.50;59.39;;
70454;Laerm;57915;47.174;14.680;2023-09-19T02:25:21;48.89;39.92;56.28;;
70454;Laerm;57915;47.174;14.680;2023-09-19T02:26:22;40.96;37.18;45.10;;
70454;Laerm;57915;47.174;14.680;2023-09-19T02:27:27;40.66;37.71;43.86;;
70454;Laerm;57915;47.174;14.680;2023-09-19T02:28:28;41.39;37.91;44.39;;
70454;Laerm;57915;47.174;14.680;2023-09-19T02:29:30;40.86;37.17;46.15;;
70454;Laerm;57915;47.174;14.680;2023-09-19T02:30:31;44.39;39.63;49.25;;
70454;Laerm;57915;47.174;14.680;2023-09-19T02:31:32;57.93;39.56;70.89;;
70454;Laerm;57915;47.174;14.680;2023-09-19T02:32:35;61.35;40.26;73.43;;
70454;Laerm;57915;47.174;14.680;2023-09-19T02:33:38;50.43;39.10;65.70;;
70454;Laerm;57915;47.174;14.680;2023-09-19T02:34:40;53.07;39.11;65.95;;
70454;Laerm;57915;47.174;14.680;2023-09-19T02:35:42;51.33;38.98;62.08;;
70454;Laerm;57915;47.174;14.680;2023-09-19T02:36:43;63.65;45.70;72.61;;
70454;Laerm;57915;47.174;14.680;2023-09-19T02:37:44;57.71;38.58;70.58;;
70454;Laerm;57915;47.174;14.680;2023-09-19T02:38:46;60.86;39.47;73.43;;
70454;Laerm;57915;47.174;14.680;2023-09-19T02:39:46;58.81;37.24;71.21;;
70454;Laerm;57915;47.174;14.680;2023-09-19T02:40:48;57.43;38.73;67.10;;
70454;Laerm;57915;47.174;14.680;2023-09-19T02:41:49;50.28;38.47;64.41;;
70454;Laerm;57915;47.174;14.680;2023-09-19T02:42:52;57.97;38.77;70.58;;
70454;Laerm;57915;47.174;14.680;2023-09-19T02:43:53;43.57;38.50;54.05;;
70454;Laerm;57915;47.174;14.680;2023-09-19T02:44:54;52.95;39.03;66.27;;
70454;Laerm;57915;47.174;14.680;2023-09-19T02:45:57;50.77;39.61;65.25;;
70454;Laerm;57915;47.174;14.680;2023-09-19T02:46:58;42.85;38.31;48.56;;
70454;Laerm;57915;47.174;14.680;2023-09-19T02:48:00;60.42;39.21;71.78;;
70454;Laerm;57915;47.174;14.680;2023-09-19T02:49:02;49.98;39.91;62.10;;
70454;Laerm;57915;47.174;14.680;2023-09-19T02:50:05;51.29;38.38;62.44;;
70454;Laerm;57915;47.174;14.680;2023-09-19T02:51:07;41.96;38.51;47.01;;
70454;Laerm;57915;47.174;14.680;2023-09-19T02:52:07;42.58;37.76;54.92;;
70454;Laerm;57915;47.174;14.680;2023-09-19T02:53:10;57.22;37.29;70.11;;
70454;Laerm;57915;47.174;14.680;2023-09-19T02:54:12;44.34;39.02;54.67;;
70454;Laerm;57915;47.174;14.680;2023-09-19T02:55:16;41.93;38.03;49.13;;
70454;Laerm;57915;47.174;14.680;2023-09-19T02:56:17;45.29;39.59;55.64;;
70454;Laerm;57915;47.174;14.680;2023-09-19T02:57:19;53.15;40.90;65.50;;
70454;Laerm;57915;47.174;14.680;2023-09-19T02:58:19;58.26;42.68;70.91;;
70454;Laerm;57915;47.174;14.680;2023-09-19T02:59:20;48.04;38.42;55.74;;
70454;Laerm;57915;47.174;14.680;2023-09-19T03:00:22;42.28;38.21;49.55;;
70454;Laerm;57915;47.174;14.680;2023-09-19T03:01:22;59.58;38.70;70.72;;
70454;Laerm;57915;47.174;14.680;2023-09-19T03:02:24;41.67;38.50;49.56;;
70454;Laerm;57915;47.174;14.680;2023-09-19T03:03:26;57.61;40.85;70.61;;
70454;Laerm;57915;47.174;14.680;2023-09-19T03:04:28;42.99;38.17;51.13;;
70454;Laerm;57915;47.174;14.680;2023-09-19T03:05:29;58.54;39.23;70.95;;
70454;Laerm;57915;47.174;14.680;2023-09-19T03:06:31;42.57;37.96;48.68;;
70454;Laerm;57915;47.174;14.680;2023-09-19T03:07:32;42.03;37.48;48.82;;
70454;Laerm;57915;47.174;14.680;2023-09-19T03:08:33;40.97;37.70;44.81;;
70454;Laerm;57915;47.174;14.680;2023-09-19T03:09:36;40.43;36.49;49.24;;
70454;Laerm;57915;47.174;14.680;2023-09-19T03:10:37;59.23;36.74;71.85;;
70454;Laerm;57915;47.174;14.680;2023-09-19T03:11:38;57.99;35.87;71.65;;
70454;Laerm;57915;47.174;14.680;2023-09-19T03:12:40;39.79;36.74;45.28;;
70454;Laerm;57915;47.174;14.680;2023-09-19T03:13:40;57.17;37.93;68.31;;
70454;Laerm;57915;47.174;14.680;2023-09-19T03:14:42;58.52;37.96;71.49;;
70454;Laerm;57915;47.174;14.680;2023-09-19T03:15:43;55.54;38.15;68.37;;
70454;Laerm;57915;47.174;14.680;2023-09-19T03:16:46;58.94;39.28;70.53;;
70454;Laerm;57915;47.174;14.680;2023-09-19T03:17:47;56.97;39.47;69.80;;
70454;Laerm;57915;47.174;14.680;2023-09-19T03:18:50;57.47;42.05;70.44;;
70454;Laerm;57915;47.174;14.680;2023-09-19T03:19:51;56.90;39.65;69.87;;
70454;Laerm;57915;47.174;14.680;2023-09-19T03:20:53;42.14;38.44;47.06;;
70454;Laerm;57915;47.174;14.680;2023-09-19T03:21:55;60.70;39.90;70.77;;
70454;Laerm;57915;47.174;14.680;2023-09-19T03:22:57;57.82;39.95;67.75;;
70454;Laerm;57915;47.174;14.680;2023-09-19T03:23:58;58.11;39.45;69.23;;
70454;Laerm;57915;47.174;14.680;2023-09-19T03:24:59;52.51;39.99;64.53;;
70454;Laerm;57915;47.174;14.680;2023-09-19T03:26:00;61.00;40.27;72.60;;
70454;Laerm;57915;47.174;14.680;2023-09-19T03:27:02;58.96;42.51;71.33;;
70454;Laerm;57915;47.174;14.680;2023-09-19T03:28:03;45.38;38.68;60.44;;
70454;Laerm;57915;47.174;14.680;2023-09-19T03:29:05;49.08;39.50;62.30;;
70454;Laerm;57915;47.174;14.680;2023-09-19T03:30:08;50.14;40.40;63.09;;
70454;Laerm;57915;47.174;14.680;2023-09-19T03:31:13;60.49;40.86;70.69;;
70454;Laerm;57915;47.174;14.680;2023-09-19T03:32:13;60.40;40.87;72.57;;
70454;Laerm;57915;47.174;14.680;2023-09-19T03:33:15;62.87;42.04;70.73;;
70454;Laerm;57915;47.174;14.680;2023-09-19T03:34:17;64.12;46.68;71.16;;
70454;Laerm;57915;47.174;14.680;2023-09-19T03:35:19;61.29;43.36;71.70;;
70454;Laerm;57915;47.174;14.680;2023-09-19T03:36:19;62.25;40.12;71.51;;
70454;Laerm;57915;47.174;14.680;2023-09-19T03:37:21;60.47;39.25;71.56;;
70454;Laerm;57915;47.174;14.680;2023-09-19T03:38:21;58.98;41.24;68.35;;
70454;Laerm;57915;47.174;14.680;2023-09-19T03:39:23;57.45;39.73;69.92;;
70454;Laerm;57915;47.174;14.680;2023-09-19T03:40:23;63.45;42.93;74.96;;
70454;Laerm;57915;47.174;14.680;2023-09-19T03:41:26;62.73;42.13;72.14;;
70454;Laerm;57915;47.174;14.680;2023-09-19T03:42:26;63.11;39.22;75.17;;
70454;Laerm;57915;47.174;14.680;2023-09-19T03:43:27;62.60;42.26;73.73;;
70454;Laerm;57915;47.174;14.680;2023-09-19T03:44:28;59.00;41.37;69.78;;
70454;Laerm;57915;47.174;14.680;2023-09-19T03:45:30;57.74;40.12;71.18;;
70454;Laerm;57915;47.174;14.680;2023-09-19T03:46:30;54.75;39.61;70.48;;
70454;Laerm;57915;47.174;14.680;2023-09-19T03:47:32;60.21;42.39;72.12;;
70454;Laerm;57915;47.174;14.680;2023-09-19T03:48:33;61.17;43.83;72.71;;
70454;Laerm;57915;47.174;14.680;2023-09-19T03:49:36;48.52;40.21;61.02;;
70454;Laerm;57915;47.174;14.680;2023-09-19T03:50:37;61.65;42.02;71.06;;
70454;Laerm;57915;47.174;14.680;2023-09-19T03:51:37;56.27;41.81;71.41;;
70454;Laerm;57915;47.174;14.680;2023-09-19T03:52:41;60.74;40.55;69.70;;
70454;Laerm;57915;47.174;14.680;2023-09-19T03:53:42;53.99;38.13;66.42;;
70454;Laerm;57915;47.174;14.680;2023-09-19T03:54:42;60.64;39.76;68.91;;
70454;Laerm;57915;47.174;14.680;2023-09-19T03:55:44;57.51;38.44;70.33;;
70454;Laerm;57915;47.174;14.680;2023-09-19T03:56:46;59.29;37.08;74.77;;
70454;Laerm;57915;47.174;14.680;2023-09-19T03:57:47;61.80;40.43;74.94;;
70454;Laerm;57915;47.174;14.680;2023-09-19T03:58:48;62.03;42.02;70.43;;
70454;Laerm;57915;47.174;14.680;2023-09-19T03:59:50;49.32;39.63;63.02;;
70454;Laerm;57915;47.174;14.680;2023-09-19T04:00:54;49.62;38.34;64.79;;
70454;Laerm;57915;47.174;14.680;2023-09-19T04:01:55;56.44;39.91;68.34;;
70454;Laerm;57915;47.174;14.680;2023-09-19T04:02:58;57.51;40.63;69.63;;
70454;Laerm;57915;47.174;14.680;2023-09-19T04:03:58;61.88;44.00;72.67;;
70454;Laerm;57915;47.174;14.680;2023-09-19T04:05:09;63.88;46.17;71.02;;
70454;Laerm;57915;47.174;14.680;2023-09-19T04:06:10;58.73;41.08;68.58;;
70454;Laerm;57915;47.174;14.680;2023-09-19T04:07:12;43.25;40.04;46.63;;
70454;Laerm;57915;47.174;14.680;2023-09-19T04:08:13;57.43;40.60;68.71;;
70454;Laerm;57915;47.174;14.680;2023-09-19T04:09:14;60.57;42.94;68.98;;
70454;Laerm;57915;47.174;14.680;2023-09-19T04:10:14;61.52;40.06;72.57;;
70454;Laerm;57915;47.174;14.680;2023-09-19T04:11:15;53.56;41.70;65.15;;
70454;Laerm;57915;47.174;14.680;2023-09-19T04:12:17;61.64;45.71;70.91;;
70454;Laerm;57915;47.174;14.680;2023-09-19T04:13:18;48.93;41.15;58.26;;
70454;Laerm;57915;47.174;14.680;2023-09-19T04:14:19;61.38;42.51;73.45;;
70454;Laerm;57915;47.174;14.680;2023-09-19T04:15:20;61.23;43.39;72.27;;
70454;Laerm;57915;47.174;14.680;2023-09-19T04:16:22;59.83;42.21;71.68;;
70454;Laerm;57915;47.174;14.680;2023-09-19T04:17:22;59.79;42.26;73.36;;
70454;Laerm;57915;47.174;14.680;2023-09-19T04:18:24;62.47;44.16;71.60;;
70454;Laerm;57915;47.174;14.680;2023-09-19T04:19:25;57.79;38.50;71.79;;
70454;Laerm;57915;47.174;14.680;2023-09-19T04:20:28;61.90;41.94;70.59;;
70454;Laerm;57915;47.174;14.680;2023-09-19T04:21:28;57.80;41.83;68.07;;
70454;Laerm;57915;47.174;14.680;2023-09-19T04:22:29;58.37;41.79;68.81;;
70454;Laerm;57915;47.174;14.680;2023-09-19T04:23:30;59.18;44.99;68.37;;
70454;Laerm;57915;47.174;14.680;2023-09-19T04:24:31;57.73;38.84;71.21;;
70454;Laerm;57915;47.174;14.680;2023-09-19T04:25:34;56.05;39.66;67.02;;
70454;Laerm;57915;47.174;14.680;2023-09-19T04:26:34;56.39;38.78;68.80;;
70454;Laerm;57915;47.174;14.680;2023-09-19T04:27:36;56.50;40.16;69.87;;
70454;Laerm;57915;47.174;14.680;2023-09-19T04:28:38;44.72;38.11;55.05;;
70454;Laerm;57915;47.174;14.680;2023-09-19T04:29:40;40.86;37.97;44.15;;
70454;Laerm;57915;47.174;14.680;2023-09-19T04:30:41;55.81;38.79;65.55;;
70454;Laerm;57915;47.174;14.680;2023-09-19T04:31:43;60.63;41.41;71.60;;
70454;Laerm;57915;47.174;14.680;2023-09-19T04:32:45;58.78;40.37;67.84;;
70454;Laerm;57915;47.174;14.680;2023-09-19T04:33:50;60.42;40.64;70.91;;
70454;Laerm;57915;47.174;14.680;2023-09-19T04:34:51;54.52;41.47;64.95;;
70454;Laerm;57915;47.174;14.680;2023-09-19T04:35:55;58.55;42.87;67.81;;
70454;Laerm;57915;47.174;14.680;2023-09-19T04:36:56;48.89;39.67;66.66;;
70454;Laerm;57915;47.174;14.680;2023-09-19T04:37:58;56.38;39.41;65.89;;
70454;Laerm;57915;47.174;14.680;2023-09-19T04:38:59;62.23;46.18;70.80;;
70454;Laerm;57915;47.174;14.680;2023-09-19T04:39:59;61.23;41.64;69.96;;
70454;Laerm;57915;47.174;14.680;2023-09-19T04:41:01;43.76;39.46;50.11;;
70454;Laerm;57915;47.174;14.680;2023-09-19T04:42:01;58.40;43.02;67.16;;
70454;Laerm;57915;47.174;14.680;2023-09-19T04:43:04;59.23;41.55;73.18;;
70454;Laerm;57915;47.174;14.680;2023-09-19T04:44:05;57.28;43.20;67.80;;
70454;Laerm;57915;47.174;14.680;2023-09-19T04:45:05;63.84;43.60;80.19;;
70454;Laerm;57915;47.174;14.680;2023-09-19T04:46:07;59.15;41.59;67.34;;
70454;Laerm;57915;47.174;14.680;2023-09-19T04:47:07;57.22;41.30;67.44;;
70454;Laerm;57915;47.174;14.680;2023-09-19T04:48:09;59.34;43.49;66.55;;
70454;Laerm;57915;47.174;14.680;2023-09-19T04:49:10;62.09;43.94;69.55;;
70454;Laerm;57915;47.174;14.680;2023-09-19T04:50:12;61.02;43.48;71.72;;
70454;Laerm;57915;47.174;14.680;2023-09-19T04:51:15;60.94;42.96;69.35;;
70454;Laerm;57915;47.174;14.680;2023-09-19T04:52:16;53.97;40.56;65.27;;
70454;Laerm;57915;47.174;14.680;2023-09-19T04:53:17;61.06;44.13;69.58;;
70454;Laerm;57915;47.174;14.680;2023-09-19T04:54:20;50.89;42.05;63.96;;
70454;Laerm;57915;47.174;14.680;2023-09-19T04:55:21;61.92;43.94;74.57;;
70454;Laerm;57915;47.174;14.680;2023-09-19T04:56:22;56.56;43.50;71.69;;
70454;Laerm;57915;47.174;14.680;2023-09-19T04:57:24;62.55;41.91;75.70;;
70454;Laerm;57915;47.174;14.680;2023-09-19T04:58:25;62.90;50.82;69.91;;
70454;Laerm;57915;47.174;14.680;2023-09-19T04:59:27;58.47;40.21;70.96;;
70454;Laerm;57915;47.174;14.680;2023-09-19T05:00:28;54.09;39.80;65.81;;
70454;Laerm;57915;47.174;14.680;2023-09-19T05:01:30;57.64;40.28;69.44;;
70454;Laerm;57915;47.174;14.680;2023-09-19T05:02:32;61.25;41.97;69.44;;
70454;Laerm;57915;47.174;14.680;2023-09-19T05:03:34;62.61;42.01;70.22;;
70454;Laerm;57915;47.174;14.680;2023-09-19T05:04:36;55.86;41.58;70.25;;
70454;Laerm;57915;47.174;14.680;2023-09-19T05:05:37;61.73;45.00;72.22;;
70454;Laerm;57915;47.174;14.680;2023-09-19T05:06:40;57.67;44.07;67.68;;
70454;Laerm;57915;47.174;14.680;2023-09-19T05:07:42;58.87;42.06;69.97;;
70454;Laerm;57915;47.174;14.680;2023-09-19T05:08:42;60.35;42.90;71.71;;
70454;Laerm;57915;47.174;14.680;2023-09-19T05:09:44;58.75;40.97;67.70;;
70454;Laerm;57915;47.174;14.680;2023-09-19T05:10:45;60.66;42.86;71.54;;
70454;Laerm;57915;47.174;14.680;2023-09-19T05:11:46;62.35;47.98;69.59;;
70454;Laerm;57915;47.174;14.680;2023-09-19T05:12:47;63.83;53.99;70.88;;
70454;Laerm;57915;47.174;14.680;2023-09-19T05:13:51;63.01;45.85;70.34;;
70454;Laerm;57915;47.174;14.680;2023-09-19T05:14:53;62.36;43.89;74.38;;
70454;Laerm;57915;47.174;14.680;2023-09-19T05:15:55;60.79;45.55;69.26;;
70454;Laerm;57915;47.174;14.680;2023-09-19T05:16:55;59.86;45.49;69.47;;
70454;Laerm;57915;47.174;14.680;2023-09-19T05:17:56;62.66;43.81;72.42;;
70454;Laerm;57915;47.174;14.680;2023-09-19T05:18:57;60.83;46.46;71.53;;
70454;Laerm;57915;47.174;14.680;2023-09-19T05:20:00;61.27;44.55;70.19;;
70454;Laerm;57915;47.174;14.680;2023-09-19T05:21:06;61.82;44.46;71.11;;
70454;Laerm;57915;47.174;14.680;2023-09-19T05:22:09;64.47;48.03;71.90;;
70454;Laerm;57915;47.174;14.680;2023-09-19T05:23:10;62.97;49.74;70.06;;
70454;Laerm;57915;47.174;14.680;2023-09-19T05:24:12;64.41;52.68;71.32;;
70454;Laerm;57915;47.174;14.680;2023-09-19T05:25:14;61.98;46.40;70.91;;
70454;Laerm;57915;47.174;14.680;2023-09-19T05:26:18;62.25;49.00;71.43;;
70454;Laerm;57915;47.174;14.680;2023-09-19T05:27:19;64.01;46.40;75.43;;
70454;Laerm;57915;47.174;14.680;2023-09-19T05:28:21;63.68;52.07;71.35;;
70454;Laerm;57915;47.174;14.680;2023-09-19T05:29:21;64.15;53.09;72.64;;
70454;Laerm;57915;47.174;14.680;2023-09-19T05:30:23;61.56;43.15;70.73;;
70454;Laerm;57915;47.174;14.680;2023-09-19T05:31:23;60.88;47.56;70.94;;
70454;Laerm;57915;47.174;14.680;2023-09-19T05:32:25;63.83;42.67;70.92;;
70454;Laerm;57915;47.174;14.680;2023-09-19T05:33:26;62.91;44.21;71.15;;
70454;Laerm;57915;47.174;14.680;2023-09-19T05:34:27;64.14;48.23;73.27;;
70454;Laerm;57915;47.174;14.680;2023-09-19T05:35:30;62.65;46.71;75.36;;
70454;Laerm;57915;47.174;14.680;2023-09-19T05:36:31;62.21;44.04;74.39;;
70454;Laerm;57915;47.174;14.680;2023-09-19T05:37:35;63.06;48.09;68.45;;
70454;Laerm;57915;47.174;14.680;2023-09-19T05:38:36;62.00;46.12;69.23;;
70454;Laerm;57915;47.174;14.680;2023-09-19T05:39:42;63.01;42.91;76.05;;
70454;Laerm;57915;47.174;14.680;2023-09-19T05:40:43;63.33;44.35;73.76;;
70454;Laerm;57915;47.174;14.680;2023-09-19T05:41:45;64.19;50.75;70.55;;
70454;Laerm;57915;47.174;14.680;2023-09-19T05:42:47;63.04;44.91;73.04;;
70454;Laerm;57915;47.174;14.680;2023-09-19T05:43:50;63.26;49.61;71.04;;
70454;Laerm;57915;47.174;14.680;2023-09-19T05:44:51;61.82;43.72;69.08;;
70454;Laerm;57915;47.174;14.680;2023-09-19T05:45:52;62.10;43.78;70.91;;
70454;Laerm;57915;47.174;14.680;2023-09-19T05:46:53;61.87;43.41;70.31;;
70454;Laerm;57915;47.174;14.680;2023-09-19T05:47:56;59.34;43.03;68.89;;